createdAt,value
2018-06-20T00:00:06.473Z,81.16
2018-06-20T00:01:09.253Z,81.96
2018-06-20T00:02:12.132Z,81.07
2018-06-20T00:03:15.224Z,81.64
2018-06-20T00:04:17.999Z,81.64
2018-06-20T00:05:20.920Z,80.95
2018-06-20T00:06:24.454Z,80.98
2018-06-20T00:07:27.413Z,81.54
2018-06-20T00:08:30.637Z,81.17
2018-06-20T00:09:33.696Z,81.47
2018-06-20T00:10:36.493Z,82.02
2018-06-20T00:11:40.464Z,80.98
2018-06-20T00:12:43.284Z,82.10
2018-06-20T00:13:48.086Z,81.66
2018-06-20T00:14:50.878Z,82.02
2018-06-20T00:15:53.962Z,81.23
2018-06-20T00:16:56.774Z,81.29
2018-06-20T00:17:59.582Z,81.92
2018-06-20T00:19:02.386Z,81.57
2018-06-20T00:20:05.187Z,81.83
2018-06-20T00:21:07.986Z,81.69
2018-06-20T00:22:11.069Z,82.40
2018-06-20T00:23:14.418Z,81.69
2018-06-20T00:24:17.284Z,81.93
2018-06-20T00:25:20.126Z,82.29
2018-06-20T00:26:23.332Z,81.85
2018-06-20T00:27:26.313Z,81.67
2018-06-20T00:28:29.467Z,81.59
2018-06-20T00:29:33.391Z,82.17
2018-06-20T00:30:36.156Z,82.23
2018-06-20T00:31:38.937Z,81.92
2018-06-20T00:32:41.728Z,82.21
2018-06-20T00:33:44.523Z,81.42
2018-06-20T00:34:48.235Z,82.33
2018-06-20T00:35:51.028Z,81.61
2018-06-20T00:36:53.813Z,82.03
2018-06-20T00:37:56.591Z,81.29
2018-06-20T00:39:00.352Z,81.61
2018-06-20T00:40:03.144Z,82.16
2018-06-20T00:41:06.375Z,82.00
2018-06-20T00:42:09.189Z,82.50
2018-06-20T00:43:12.000Z,82.21
2018-06-20T00:44:14.812Z,81.65
2018-06-20T00:45:18.905Z,81.81
2018-06-20T00:46:22.320Z,81.87
2018-06-20T00:47:25.505Z,82.56
2018-06-20T00:48:28.323Z,81.55
2018-06-20T00:49:31.101Z,82.28
2018-06-20T00:50:34.969Z,81.49
2018-06-20T00:51:37.735Z,82.04
2018-06-20T00:52:40.521Z,81.60
2018-06-20T00:53:43.968Z,82.45
2018-06-20T00:54:46.785Z,81.75
2018-06-20T00:55:49.613Z,82.58
2018-06-20T00:56:52.933Z,82.45
2018-06-20T00:57:56.334Z,82.40
2018-06-20T00:58:59.086Z,82.68
2018-06-20T01:00:02.585Z,81.58
2018-06-20T01:01:05.698Z,82.38
2018-06-20T01:02:11.569Z,82.65
2018-06-20T01:03:14.353Z,82.54
2018-06-20T01:04:17.271Z,82.42
2018-06-20T01:05:20.066Z,82.67
2018-06-20T01:06:23.670Z,82.55
2018-06-20T01:07:27.190Z,82.68
2018-06-20T01:08:31.556Z,81.76
2018-06-20T01:09:34.541Z,82.36
2018-06-20T01:10:37.310Z,81.80
2018-06-20T01:11:40.138Z,82.38
2018-06-20T01:12:43.368Z,82.61
2018-06-20T01:13:46.185Z,82.47
2018-06-20T01:14:49.027Z,82.31
2018-06-20T01:15:51.830Z,81.89
2018-06-20T01:16:55.426Z,81.85
2018-06-20T01:17:58.198Z,82.38
2018-06-20T01:19:01.282Z,82.15
2018-06-20T01:20:04.128Z,82.68
2018-06-20T01:21:06.919Z,82.87
2018-06-20T01:22:10.323Z,82.23
2018-06-20T01:23:16.635Z,83.28
2018-06-20T01:24:20.834Z,82.96
2018-06-20T01:25:24.133Z,82.15
2018-06-20T01:26:26.932Z,83.01
2018-06-20T01:27:29.995Z,83.58
2018-06-20T01:28:32.814Z,83.27
2018-06-20T01:29:35.594Z,82.83
2018-06-20T01:30:38.367Z,82.56
2018-06-20T01:31:42.205Z,82.13
2018-06-20T01:32:45.069Z,82.71
2018-06-20T01:33:55.652Z,82.61
2018-06-20T01:34:58.477Z,82.01
2018-06-20T01:36:01.297Z,82.59
2018-06-20T01:37:04.143Z,82.54
2018-06-20T01:38:07.255Z,82.71
2018-06-20T01:39:11.084Z,82.91
2018-06-20T01:40:13.918Z,82.14
2018-06-20T01:41:16.707Z,82.04
2018-06-20T01:42:19.664Z,82.95
2018-06-20T01:43:24.935Z,81.99
2018-06-20T01:44:28.066Z,82.88
2018-06-20T01:45:31.842Z,82.75
2018-06-20T01:46:35.326Z,82.01
2018-06-20T01:47:38.090Z,82.78
2018-06-20T01:48:41.927Z,82.14
2018-06-20T01:49:45.157Z,82.83
2018-06-20T01:50:51.242Z,82.43
2018-06-20T01:51:57.585Z,82.74
2018-06-20T01:53:02.616Z,82.41
2018-06-20T01:54:05.450Z,82.27
2018-06-20T01:55:09.462Z,82.06
2018-06-20T01:56:12.295Z,83.11
2018-06-20T01:57:15.383Z,83.51
2018-06-20T01:58:18.211Z,83.24
2018-06-20T01:59:21.047Z,83.22
2018-06-20T02:00:25.471Z,82.34
2018-06-20T02:01:28.319Z,82.46
2018-06-20T02:02:31.811Z,82.53
2018-06-20T02:03:34.890Z,83.20
2018-06-20T02:04:37.701Z,82.29
2018-06-20T02:05:41.520Z,82.57
2018-06-20T02:06:45.360Z,82.79
2018-06-20T02:07:50.374Z,83.25
2018-06-20T02:08:57.283Z,83.04
2018-06-20T02:10:00.393Z,83.71
2018-06-20T02:11:03.236Z,83.94
2018-06-20T02:12:07.242Z,83.75
2018-06-20T02:13:11.058Z,83.84
2018-06-20T02:14:13.855Z,83.80
2018-06-20T02:15:17.733Z,83.31
2018-06-20T02:16:20.827Z,83.03
2018-06-20T02:17:23.636Z,83.04
2018-06-20T02:18:26.735Z,83.17
2018-06-20T02:19:29.551Z,82.96
2018-06-20T02:20:32.358Z,83.75
2018-06-20T02:21:35.690Z,82.98
2018-06-20T02:22:39.326Z,83.34
2018-06-20T02:23:42.131Z,82.85
2018-06-20T02:24:46.295Z,82.75
2018-06-20T02:25:49.088Z,82.98
2018-06-20T02:26:51.935Z,83.49
2018-06-20T02:27:55.543Z,83.06
2018-06-20T02:28:58.634Z,82.89
2018-06-20T02:30:02.817Z,82.95
2018-06-20T02:31:05.639Z,83.32
2018-06-20T02:32:09.402Z,84.13
2018-06-20T02:33:12.239Z,84.11
2018-06-20T02:35:48.741Z,83.98
2018-06-20T02:36:52.415Z,84.02
2018-06-20T02:37:55.276Z,83.21
2018-06-20T02:38:58.399Z,83.04
2018-06-20T02:40:01.433Z,83.30
2018-06-20T02:41:04.589Z,83.08
2018-06-20T02:42:07.380Z,83.16
2018-06-20T02:43:12.545Z,83.99
2018-06-20T02:44:16.909Z,83.90
2018-06-20T02:45:20.942Z,83.64
2018-06-20T02:46:25.620Z,83.14
2018-06-20T02:47:34.340Z,84.02
2018-06-20T02:48:43.209Z,82.77
2018-06-20T02:49:47.449Z,83.68
2018-06-20T02:50:50.259Z,83.72
2018-06-20T02:51:54.069Z,84.03
2018-06-20T02:52:58.710Z,83.53
2018-06-20T02:54:01.823Z,83.37
2018-06-20T02:55:04.632Z,83.39
2018-06-20T02:56:07.751Z,83.93
2018-06-20T02:57:12.064Z,83.05
2018-06-20T02:58:16.186Z,84.02
2018-06-20T02:59:19.195Z,83.38
2018-06-20T03:00:22.498Z,83.86
2018-06-20T03:01:25.771Z,83.17
2018-06-20T03:02:28.760Z,83.33
2018-06-20T03:03:32.438Z,83.62
2018-06-20T03:04:36.038Z,83.29
2018-06-20T03:05:39.462Z,83.74
2018-06-20T03:06:43.095Z,83.99
2018-06-20T03:07:47.684Z,83.33
2018-06-20T03:08:55.292Z,83.31
2018-06-20T03:09:58.697Z,83.85
2018-06-20T03:11:01.560Z,83.28
2018-06-20T03:12:04.367Z,83.12
2018-06-20T03:13:10.456Z,83.22
2018-06-20T03:14:13.920Z,84.32
2018-06-20T03:15:17.408Z,83.26
2018-06-20T03:16:21.514Z,83.02
2018-06-20T03:17:24.451Z,83.83
2018-06-20T03:18:27.309Z,83.61
2018-06-20T03:19:31.254Z,83.99
2018-06-20T03:20:34.442Z,84.19
2018-06-20T03:21:37.313Z,83.92
2018-06-20T03:22:40.271Z,83.42
2018-06-20T03:23:43.610Z,84.15
2018-06-20T03:24:46.442Z,83.51
2018-06-20T03:25:50.363Z,83.26
2018-06-20T03:26:54.003Z,83.96
2018-06-20T03:27:57.396Z,83.48
2018-06-20T03:29:00.209Z,83.31
2018-06-20T03:30:03.879Z,83.66
2018-06-20T03:31:06.695Z,84.32
2018-06-20T03:32:09.832Z,83.59
2018-06-20T03:33:12.756Z,83.66
2018-06-20T03:34:16.143Z,84.17
2018-06-20T03:35:18.955Z,84.26
2018-06-20T03:36:21.771Z,84.29
2018-06-20T03:37:24.641Z,84.50
2018-06-20T03:38:28.354Z,85.07
2018-06-20T03:39:31.197Z,84.69
2018-06-20T03:40:34.703Z,84.01
2018-06-20T03:41:37.503Z,84.10
2018-06-20T03:42:41.415Z,84.11
2018-06-20T03:43:44.290Z,84.36
2018-06-20T03:44:47.088Z,83.75
2018-06-20T03:45:49.876Z,83.66
2018-06-20T03:46:52.695Z,83.35
2018-06-20T03:47:55.488Z,83.20
2018-06-20T03:48:58.954Z,84.05
2018-06-20T03:50:06.491Z,84.12
2018-06-20T03:51:09.265Z,84.02
2018-06-20T03:52:16.527Z,84.26
2018-06-20T03:53:19.307Z,84.27
2018-06-20T03:54:22.125Z,83.45
2018-06-20T03:55:24.919Z,83.38
2018-06-20T03:56:27.754Z,84.12
2018-06-20T03:57:30.588Z,83.71
2018-06-20T03:58:33.431Z,83.37
2018-06-20T03:59:36.403Z,83.23
2018-06-20T04:00:42.866Z,83.45
2018-06-20T04:01:46.064Z,83.49
2018-06-20T04:02:50.716Z,83.88
2018-06-20T04:03:54.745Z,83.50
2018-06-20T04:04:57.823Z,83.33
2018-06-20T04:06:00.635Z,83.47
2018-06-20T04:07:03.492Z,83.46
2018-06-20T04:08:06.789Z,82.91
2018-06-20T04:09:12.021Z,83.95
2018-06-20T04:10:14.886Z,83.42
2018-06-20T04:11:17.965Z,83.13
2018-06-20T04:12:21.969Z,83.52
2018-06-20T04:13:24.758Z,83.73
2018-06-20T04:15:41.235Z,83.22
2018-06-20T04:16:44.035Z,83.61
2018-06-20T04:17:46.907Z,83.22
2018-06-20T04:18:49.749Z,83.26
2018-06-20T04:21:01.841Z,83.47
2018-06-20T04:22:05.070Z,84.18
2018-06-20T04:23:08.008Z,82.93
2018-06-20T04:24:12.242Z,83.87
2018-06-20T04:25:15.141Z,84.20
2018-06-20T04:26:17.958Z,82.93
2018-06-20T04:27:20.805Z,83.34
2018-06-20T04:28:24.161Z,83.01
2018-06-20T04:29:26.952Z,83.38
2018-06-20T04:30:30.520Z,82.55
2018-06-20T04:32:42.976Z,82.44
2018-06-20T04:33:45.881Z,83.04
2018-06-20T04:34:50.165Z,82.82
2018-06-20T04:37:08.569Z,82.08
2018-06-20T04:38:12.062Z,82.00
2018-06-20T04:40:33.215Z,83.06
2018-06-20T04:41:36.408Z,82.56
2018-06-20T04:42:39.245Z,83.04
2018-06-20T04:43:43.768Z,82.10
2018-06-20T04:44:48.936Z,82.90
2018-06-20T04:45:53.394Z,82.58
2018-06-20T04:46:59.696Z,82.88
2018-06-20T04:48:07.508Z,82.37
2018-06-20T04:49:19.964Z,82.56
2018-06-20T04:50:28.522Z,82.72
2018-06-20T04:51:38.534Z,81.63
2018-06-20T04:52:42.572Z,81.80
2018-06-20T04:53:46.606Z,82.41
2018-06-20T04:54:50.519Z,82.59
2018-06-20T04:55:54.870Z,82.44
2018-06-20T04:56:57.711Z,82.44
2018-06-20T04:58:01.777Z,81.24
2018-06-20T04:59:07.185Z,82.24
2018-06-20T05:00:11.067Z,82.34
2018-06-20T05:01:14.436Z,82.32
2018-06-20T05:02:17.729Z,82.33
2018-06-20T05:03:21.237Z,81.82
2018-06-20T05:04:25.230Z,81.28
2018-06-20T05:05:29.006Z,81.75
2018-06-20T05:06:32.042Z,81.99
2018-06-20T05:08:45.652Z,81.11
2018-06-20T05:09:48.554Z,81.16
2018-06-20T05:10:52.266Z,81.21
2018-06-20T05:11:55.263Z,81.40
2018-06-20T05:13:00.766Z,81.80
2018-06-20T05:14:03.734Z,80.83
2018-06-20T05:15:14.422Z,80.99
2018-06-20T05:16:17.863Z,81.44
2018-06-20T05:17:22.382Z,81.57
2018-06-20T05:18:26.225Z,81.01
2018-06-20T05:19:30.894Z,81.50
2018-06-20T05:20:43.636Z,80.45
2018-06-20T05:21:47.921Z,80.57
2018-06-20T05:22:50.844Z,80.53
2018-06-20T05:23:54.803Z,80.95
2018-06-20T05:24:57.632Z,80.25
2018-06-20T05:26:00.461Z,80.79
2018-06-20T05:27:03.274Z,80.70
2018-06-20T05:28:06.081Z,80.02
2018-06-20T05:29:09.672Z,80.79
2018-06-20T05:30:14.137Z,80.03
2018-06-20T05:31:17.064Z,80.22
2018-06-20T05:32:20.164Z,79.78
2018-06-20T05:33:25.481Z,79.44
2018-06-20T05:34:28.328Z,80.04
2018-06-20T05:35:31.158Z,79.56
2018-06-20T05:36:35.352Z,80.36
2018-06-20T05:37:38.187Z,80.40
2018-06-20T05:38:41.028Z,79.66
2018-06-20T05:39:44.751Z,79.67
2018-06-20T05:40:48.323Z,79.24
2018-06-20T05:41:51.171Z,79.87
2018-06-20T05:42:54.503Z,79.72
2018-06-20T05:43:57.321Z,79.49
2018-06-20T05:45:00.211Z,79.46
2018-06-20T05:46:03.038Z,79.49
2018-06-20T05:47:10.143Z,79.40
2018-06-20T05:48:12.986Z,79.29
2018-06-20T05:49:16.282Z,79.21
2018-06-20T05:50:19.932Z,79.29
2018-06-20T05:51:22.857Z,79.16
2018-06-20T05:52:25.691Z,78.53
2018-06-20T05:53:28.770Z,77.95
2018-06-20T05:54:31.792Z,77.96
2018-06-20T05:55:35.684Z,78.49
2018-06-20T05:56:38.488Z,77.93
2018-06-20T05:57:41.310Z,77.72
2018-06-20T05:58:49.054Z,78.20
2018-06-20T05:59:51.907Z,77.95
2018-06-20T06:00:54.905Z,76.85
2018-06-20T06:01:58.295Z,76.86
2018-06-20T06:03:01.159Z,76.68
2018-06-20T06:04:04.046Z,76.26
2018-06-20T06:05:08.247Z,76.07
2018-06-20T06:06:20.529Z,76.44
2018-06-20T06:07:23.969Z,76.75
2018-06-20T06:08:27.266Z,76.71
2018-06-20T06:09:31.700Z,76.71
2018-06-20T06:10:36.287Z,76.11
2018-06-20T06:11:41.419Z,76.21
2018-06-20T06:12:44.656Z,75.70
2018-06-20T06:13:47.497Z,76.30
2018-06-20T06:14:55.380Z,75.49
2018-06-20T06:15:58.201Z,76.01
2018-06-20T06:17:01.088Z,75.50
2018-06-20T06:18:04.715Z,74.96
2018-06-20T06:19:08.500Z,75.25
2018-06-20T06:20:13.698Z,74.42
2018-06-20T06:21:18.052Z,74.90
2018-06-20T06:22:20.956Z,74.10
2018-06-20T06:23:23.931Z,74.58
2018-06-20T06:25:57.384Z,74.21
2018-06-20T06:27:01.861Z,74.04
2018-06-20T06:28:05.800Z,73.12
2018-06-20T06:29:09.824Z,72.48
2018-06-20T06:30:12.877Z,72.47
2018-06-20T06:31:15.752Z,71.92
2018-06-20T06:32:19.654Z,72.20
2018-06-20T06:33:22.620Z,71.33
2018-06-20T06:34:25.734Z,71.32
2018-06-20T06:35:30.190Z,69.59
2018-06-20T06:36:33.019Z,69.50
2018-06-20T06:37:35.905Z,70.64
2018-06-20T06:38:38.761Z,69.35
2018-06-20T06:39:42.399Z,69.53
2018-06-20T06:40:47.629Z,69.52
2018-06-20T06:41:51.576Z,69.37
2018-06-20T06:42:56.216Z,68.95
2018-06-20T06:44:00.738Z,69.91
2018-06-20T06:45:04.342Z,69.04
2018-06-20T06:46:09.471Z,68.82
2018-06-20T06:47:12.722Z,69.01
2018-06-20T06:48:17.029Z,68.73
2018-06-20T06:49:20.364Z,69.11
2018-06-20T06:50:23.200Z,69.33
2018-06-20T06:51:27.220Z,69.49
2018-06-20T06:52:30.136Z,69.27
2018-06-20T06:53:34.396Z,68.26
2018-06-20T06:54:37.352Z,68.92
2018-06-20T06:55:40.307Z,67.79
2018-06-20T06:56:43.108Z,67.77
2018-06-20T06:57:48.404Z,68.48
2018-06-20T06:58:52.205Z,68.19
2018-06-20T06:59:57.788Z,66.92
2018-06-20T07:02:27.028Z,67.05
2018-06-20T07:03:31.023Z,66.84
2018-06-20T07:04:34.197Z,65.78
2018-06-20T07:05:37.293Z,65.57
2018-06-20T07:06:41.212Z,65.37
2018-06-20T07:07:44.324Z,64.59
2018-06-20T07:08:47.220Z,64.82
2018-06-20T07:09:50.119Z,64.16
2018-06-20T07:10:53.447Z,64.87
2018-06-20T07:12:00.191Z,64.79
2018-06-20T07:13:03.615Z,63.75
2018-06-20T07:14:07.568Z,64.16
2018-06-20T07:15:10.470Z,62.94
2018-06-20T07:16:13.516Z,63.00
2018-06-20T07:17:16.346Z,61.52
2018-06-20T07:18:22.464Z,61.27
2018-06-20T07:19:29.545Z,62.21
2018-06-20T07:20:33.263Z,62.07
2018-06-20T07:21:36.289Z,61.21
2018-06-20T07:22:39.751Z,61.76
2018-06-20T07:23:42.660Z,60.15
2018-06-20T07:24:45.545Z,60.61
2018-06-20T07:25:50.575Z,60.47
2018-06-20T07:26:54.248Z,59.89
2018-06-20T07:27:58.756Z,59.46
2018-06-20T07:29:01.687Z,59.04
2018-06-20T07:30:06.418Z,58.53
2018-06-20T07:31:09.259Z,60.49
2018-06-20T07:32:12.674Z,60.40
2018-06-20T07:33:16.458Z,59.49
2018-06-20T07:34:21.130Z,59.54
2018-06-20T07:35:24.002Z,59.70
2018-06-20T07:36:28.391Z,57.98
2018-06-20T07:37:32.054Z,59.14
2018-06-20T07:38:37.509Z,57.24
2018-06-20T07:39:40.945Z,58.65
2018-06-20T07:40:43.773Z,58.04
2018-06-20T07:41:48.379Z,57.99
2018-06-20T07:42:52.220Z,59.34
2018-06-20T07:43:54.992Z,59.32
2018-06-20T07:44:58.137Z,58.71
2018-06-20T07:46:01.602Z,58.83
2018-06-20T07:47:05.375Z,58.91
2018-06-20T07:48:08.202Z,58.41
2018-06-20T07:49:11.070Z,59.70
2018-06-20T07:50:14.901Z,59.23
2018-06-20T07:51:18.509Z,60.19
2018-06-20T07:52:21.401Z,61.02
2018-06-20T07:53:24.218Z,61.30
2018-06-20T07:54:30.025Z,61.41
2018-06-20T07:55:33.631Z,61.20
2018-06-20T07:56:36.432Z,61.94
2018-06-20T07:57:39.857Z,62.02
2018-06-20T07:58:47.595Z,61.79
2018-06-20T07:59:55.249Z,60.81
2018-06-20T08:01:02.987Z,60.25
2018-06-20T08:02:10.681Z,60.67
2018-06-20T08:03:18.514Z,59.26
2018-06-20T08:04:26.574Z,59.05
2018-06-20T08:05:34.517Z,59.16
2018-06-20T08:06:42.417Z,59.86
2018-06-20T08:07:50.392Z,59.29
2018-06-20T08:08:58.651Z,59.32
2018-06-20T08:10:06.587Z,59.25
2018-06-20T08:11:15.205Z,58.65
2018-06-20T08:14:24.937Z,58.30
2018-06-20T08:15:33.561Z,59.19
2018-06-20T08:16:41.593Z,59.58
2018-06-20T08:17:50.707Z,59.13
2018-06-20T08:18:59.381Z,59.11
2018-06-20T08:20:03.228Z,59.87
2018-06-20T08:21:07.702Z,60.02
2018-06-20T08:22:11.119Z,59.81
2018-06-20T08:23:15.288Z,60.06
2018-06-20T08:24:18.135Z,60.09
2018-06-20T08:25:21.096Z,58.74
2018-06-20T08:26:24.255Z,59.33
2018-06-20T08:27:27.108Z,59.11
2018-06-20T08:28:31.186Z,59.14
2018-06-20T08:29:34.463Z,59.83
2018-06-20T08:30:38.059Z,59.40
2018-06-20T08:31:42.095Z,58.50
2018-06-20T08:32:46.823Z,58.48
2018-06-20T08:33:49.664Z,59.15
2018-06-20T08:34:53.439Z,58.13
2018-06-20T08:35:57.887Z,58.44
2018-06-20T08:37:01.942Z,58.51
2018-06-20T08:38:04.915Z,59.13
2018-06-20T08:39:08.417Z,58.26
2018-06-20T08:40:12.440Z,57.71
2018-06-20T08:41:15.316Z,57.40
2018-06-20T08:42:18.586Z,56.46
2018-06-20T08:43:21.565Z,56.39
2018-06-20T08:44:24.522Z,57.47
2018-06-20T08:45:27.357Z,55.58
2018-06-20T08:46:30.264Z,55.90
2018-06-20T08:47:33.093Z,55.39
2018-06-20T08:48:36.323Z,56.22
2018-06-20T08:49:39.208Z,55.44
2018-06-20T08:50:42.933Z,56.05
2018-06-20T08:51:45.767Z,56.39
2018-06-20T08:52:50.401Z,56.40
2018-06-20T08:53:57.436Z,56.79
2018-06-20T08:55:01.603Z,54.92
2018-06-20T08:56:04.492Z,55.26
2018-06-20T08:57:08.570Z,54.90
2018-06-20T08:58:11.553Z,54.59
2018-06-20T08:59:14.438Z,54.16
2018-06-20T09:00:21.195Z,54.94
2018-06-20T09:01:24.220Z,56.69
2018-06-20T09:02:27.128Z,56.18
2018-06-20T09:03:31.734Z,55.97
2018-06-20T09:04:40.166Z,55.67
2018-06-20T09:05:47.858Z,56.44
2018-06-20T09:06:57.327Z,56.34
2018-06-20T09:08:04.965Z,56.47
2018-06-20T09:09:12.583Z,56.86
2018-06-20T09:10:20.295Z,55.90
2018-06-20T09:13:32.324Z,56.82
2018-06-20T09:14:40.075Z,55.84
2018-06-20T09:15:48.495Z,55.83
2018-06-20T09:23:15.167Z,55.85
2018-06-20T09:24:18.007Z,56.03
2018-06-20T09:25:20.859Z,54.40
2018-06-20T09:26:25.958Z,53.49
2018-06-20T09:27:29.815Z,53.96
2018-06-20T09:28:32.823Z,55.31
2018-06-20T09:29:36.025Z,55.08
2018-06-20T09:30:39.070Z,55.23
2018-06-20T09:31:41.925Z,54.28
2018-06-20T09:32:44.743Z,55.84
2018-06-20T09:33:47.767Z,55.85
2018-06-20T09:34:50.572Z,56.49
2018-06-20T09:35:53.840Z,55.87
2018-06-20T09:36:56.681Z,55.84
2018-06-20T09:37:59.523Z,55.43
2018-06-20T09:39:02.424Z,56.24
2018-06-20T09:40:05.263Z,55.26
2018-06-20T09:41:08.735Z,55.13
2018-06-20T09:42:13.485Z,55.02
2018-06-20T09:43:20.449Z,55.02
2018-06-20T09:44:23.269Z,56.17
2018-06-20T09:45:26.340Z,56.42
2018-06-20T09:46:29.215Z,56.59
2018-06-20T09:47:32.118Z,56.27
2018-06-20T09:48:35.279Z,56.87
2018-06-20T09:49:38.350Z,56.81
2018-06-20T09:50:46.057Z,56.61
2018-06-20T09:51:51.943Z,55.73
2018-06-20T09:52:54.844Z,54.66
2018-06-20T09:53:58.393Z,54.17
2018-06-20T09:55:02.506Z,53.21
2018-06-20T09:56:06.376Z,52.64
2018-06-20T09:57:09.202Z,52.28
2018-06-20T09:58:12.035Z,52.18
2018-06-20T09:59:19.639Z,50.57
2018-06-20T10:00:28.898Z,51.63
2018-06-20T10:01:36.526Z,50.33
2018-06-20T10:02:44.220Z,50.10
2018-06-20T10:03:53.736Z,49.17
2018-06-20T10:05:01.535Z,49.04
2018-06-20T10:06:09.739Z,49.66
2018-06-20T10:07:15.567Z,52.07
2018-06-20T10:08:23.129Z,51.84
2018-06-20T10:09:31.530Z,52.46
2018-06-20T10:10:39.115Z,54.59
2018-06-20T10:11:46.750Z,54.77
2018-06-20T10:12:55.525Z,54.56
2018-06-20T10:14:00.972Z,54.49
2018-06-20T10:15:04.749Z,54.93
2018-06-20T10:16:07.578Z,54.32
2018-06-20T10:17:11.971Z,54.83
2018-06-20T10:18:15.347Z,54.89
2018-06-20T10:19:18.698Z,55.04
2018-06-20T10:20:29.432Z,53.83
2018-06-20T10:21:32.287Z,53.00
2018-06-20T10:22:35.090Z,53.04
2018-06-20T10:23:37.938Z,52.47
2018-06-20T10:24:40.776Z,49.55
2018-06-20T10:25:43.991Z,48.64
2018-06-20T10:26:46.819Z,49.47
2018-06-20T10:27:49.710Z,50.00
2018-06-20T10:28:52.566Z,48.70
2018-06-20T10:29:55.398Z,49.41
2018-06-20T10:30:58.648Z,49.42
2018-06-20T10:32:02.555Z,49.56
2018-06-20T10:33:05.773Z,50.36
2018-06-20T10:34:08.698Z,50.15
2018-06-20T10:35:11.729Z,49.98
2018-06-20T10:36:16.382Z,49.96
2018-06-20T10:37:19.257Z,50.28
2018-06-20T10:38:23.319Z,50.39
2018-06-20T10:39:26.626Z,51.08
2018-06-20T10:40:29.496Z,52.92
2018-06-20T10:41:39.339Z,52.88
2018-06-20T10:42:42.208Z,52.32
2018-06-20T10:43:46.209Z,52.00
2018-06-20T10:46:03.690Z,51.84
2018-06-20T10:47:11.203Z,50.95
2018-06-20T10:48:17.687Z,49.73
2018-06-20T10:49:21.640Z,49.96
2018-06-20T10:50:24.547Z,50.11
2018-06-20T10:51:28.293Z,50.05
2018-06-20T10:52:31.346Z,49.97
2018-06-20T10:53:34.378Z,50.12
2018-06-20T10:54:37.244Z,48.73
2018-06-20T10:55:41.581Z,48.93
2018-06-20T10:56:49.601Z,48.79
2018-06-20T10:57:57.339Z,48.77
2018-06-20T10:59:05.663Z,48.30
2018-06-20T11:00:14.212Z,48.53
2018-06-20T11:01:21.918Z,48.83
2018-06-20T11:02:29.710Z,48.40
2018-06-20T11:03:37.298Z,49.38
2018-06-20T11:04:45.999Z,49.58
2018-06-20T11:05:53.702Z,50.48
2018-06-20T11:18:51.878Z,47.30
2018-06-20T11:19:56.974Z,48.63
2018-06-20T11:21:00.536Z,47.59
2018-06-20T11:22:05.496Z,47.32
2018-06-20T11:23:10.986Z,46.77
2018-06-20T11:24:15.037Z,47.20
2018-06-20T11:25:17.891Z,48.07
2018-06-20T11:26:20.922Z,47.69
2018-06-20T11:27:23.883Z,47.63
2018-06-20T11:28:27.540Z,47.72
2018-06-20T11:29:30.394Z,48.16
2018-06-20T11:30:34.310Z,47.95
2018-06-20T11:31:37.217Z,47.33
2018-06-20T11:32:40.085Z,47.58
2018-06-20T11:33:45.742Z,48.26
2018-06-20T11:34:48.656Z,47.23
2018-06-20T11:35:52.104Z,47.05
2018-06-20T11:36:55.214Z,48.02
2018-06-20T11:37:58.088Z,47.26
2018-06-20T11:39:04.021Z,47.55
2018-06-20T11:40:07.565Z,47.36
2018-06-20T11:41:10.410Z,48.65
2018-06-20T11:42:14.451Z,48.69
2018-06-20T11:43:17.590Z,48.76
2018-06-20T11:44:20.443Z,47.98
2018-06-20T11:45:23.375Z,48.40
2018-06-20T11:46:31.590Z,48.14
2018-06-20T11:47:42.472Z,49.01
2018-06-20T11:48:46.386Z,48.40
2018-06-20T11:49:49.601Z,47.13
2018-06-20T11:53:06.465Z,47.11
2018-06-20T11:54:12.339Z,45.62
2018-06-20T11:55:19.903Z,45.49
2018-06-20T11:56:24.977Z,46.57
2018-06-20T11:57:28.085Z,45.45
2018-06-20T11:58:36.448Z,44.26
2018-06-20T11:59:44.723Z,44.04
2018-06-20T12:00:52.505Z,44.84
2018-06-20T12:02:00.235Z,45.01
2018-06-20T12:03:08.369Z,44.68
2018-06-20T12:04:19.653Z,46.47
2018-06-20T12:05:27.943Z,46.66
2018-06-20T12:06:35.634Z,44.99
2018-06-20T12:07:43.478Z,45.19
2018-06-20T12:08:51.914Z,44.27
2018-06-20T12:10:00.439Z,45.91
2018-06-20T12:11:09.738Z,47.65
2018-06-20T12:12:17.562Z,47.99
2018-06-20T12:13:26.390Z,46.52
2018-06-20T12:14:34.999Z,46.17
2018-06-20T12:15:43.397Z,45.36
2018-06-20T12:16:48.840Z,45.13
2018-06-20T12:17:56.389Z,44.99
2018-06-20T12:19:04.510Z,44.95
2018-06-20T12:20:13.261Z,44.43
2018-06-20T12:21:21.077Z,44.80
2018-06-20T12:22:28.832Z,45.06
2018-06-20T12:23:37.540Z,44.24
2018-06-20T12:24:45.270Z,43.64
2018-06-20T12:25:54.247Z,42.74
2018-06-20T12:27:01.880Z,43.02
2018-06-20T12:28:09.935Z,42.94
2018-06-20T12:29:17.697Z,42.57
2018-06-20T12:30:26.215Z,43.60
2018-06-20T12:31:35.135Z,42.42
2018-06-20T12:32:43.449Z,42.70
2018-06-20T12:33:51.580Z,41.88
2018-06-20T12:35:00.302Z,42.26
2018-06-20T12:36:08.857Z,42.21
2018-06-20T12:37:21.013Z,43.43
2018-06-20T12:38:28.761Z,43.80
2018-06-20T12:39:30.622Z,43.80
2018-06-20T12:40:39.223Z,44.28
2018-06-20T12:41:47.130Z,42.63
2018-06-20T12:42:58.034Z,42.21
2018-06-20T12:44:06.022Z,42.52
2018-06-20T12:45:12.469Z,43.49
2018-06-20T12:47:23.015Z,43.65
2018-06-20T12:48:27.372Z,42.73
2018-06-20T12:49:36.406Z,42.88
2018-06-20T12:50:39.611Z,42.30
2018-06-20T12:51:43.356Z,42.15
2018-06-20T12:52:46.391Z,42.50
2018-06-20T12:53:50.923Z,44.07
2018-06-20T12:54:53.934Z,42.92
2018-06-20T12:55:57.246Z,42.87
2018-06-20T12:57:03.128Z,43.75
2018-06-20T12:58:08.130Z,42.91
2018-06-20T12:59:12.338Z,42.61
2018-06-20T13:00:15.847Z,42.22
2018-06-20T13:01:21.360Z,43.04
2018-06-20T13:02:25.477Z,42.14
2018-06-20T13:03:33.380Z,42.85
2018-06-20T13:04:36.175Z,42.39
2018-06-20T13:05:40.574Z,42.77
2018-06-20T13:06:43.708Z,43.86
2018-06-20T13:07:48.143Z,42.55
2018-06-20T13:08:52.353Z,43.36
2018-06-20T13:09:56.230Z,43.21
2018-06-20T13:10:59.206Z,43.49
2018-06-20T13:12:02.632Z,43.37
2018-06-20T13:13:05.522Z,41.72
2018-06-20T13:14:09.500Z,41.92
2018-06-20T13:15:14.491Z,41.06
2018-06-20T13:16:17.580Z,40.66
2018-06-20T13:17:22.032Z,41.72
2018-06-20T13:18:26.007Z,40.82
2018-06-20T13:19:29.612Z,40.58
2018-06-20T13:20:32.394Z,40.10
2018-06-20T13:21:35.634Z,41.70
2018-06-20T13:22:39.072Z,41.20
2018-06-20T13:23:42.276Z,40.30
2018-06-20T13:24:46.737Z,39.69
2018-06-20T13:25:50.543Z,39.25
2018-06-20T13:26:53.435Z,39.62
2018-06-20T13:27:57.519Z,41.26
2018-06-20T13:29:02.919Z,41.45
2018-06-20T13:30:12.463Z,40.74
2018-06-20T13:31:20.093Z,40.64
2018-06-20T13:32:28.475Z,42.36
2018-06-20T13:33:38.317Z,41.02
2018-06-20T13:34:48.068Z,39.19
2018-06-20T13:35:56.391Z,38.57
2018-06-20T13:37:04.666Z,39.35
2018-06-20T13:38:14.890Z,38.96
2018-06-20T13:39:22.490Z,38.75
2018-06-20T13:40:31.463Z,39.87
2018-06-20T13:41:39.265Z,40.76
2018-06-20T13:42:47.571Z,38.53
2018-06-20T13:43:55.262Z,39.25
2018-06-20T13:45:02.916Z,38.90
2018-06-20T13:46:12.261Z,38.76
2018-06-20T13:47:21.901Z,39.41
2018-06-20T13:48:30.804Z,39.45
2018-06-20T13:49:35.376Z,39.00
2018-06-20T13:50:38.949Z,38.46
2018-06-20T13:51:41.889Z,39.27
2018-06-20T13:52:45.115Z,39.27
2018-06-20T13:53:47.938Z,39.60
2018-06-20T13:54:51.753Z,39.07
2018-06-20T13:55:56.246Z,38.56
2018-06-20T13:56:59.189Z,38.49
2018-06-20T13:58:02.084Z,39.19
2018-06-20T13:59:05.371Z,39.19
2018-06-20T14:00:09.360Z,40.61
2018-06-20T14:01:13.385Z,40.17
2018-06-20T14:02:16.302Z,38.07
2018-06-20T14:03:19.160Z,38.03
2018-06-20T14:04:21.962Z,38.34
2018-06-20T14:05:26.109Z,39.45
2018-06-20T14:06:28.948Z,38.95
2018-06-20T14:07:32.056Z,40.42
2018-06-20T14:08:34.988Z,39.19
2018-06-20T14:09:37.931Z,39.63
2018-06-20T14:10:41.603Z,39.39
2018-06-20T14:11:45.633Z,39.88
2018-06-20T14:12:50.432Z,39.74
2018-06-20T14:13:53.334Z,40.28
2018-06-20T14:14:56.785Z,39.51
2018-06-20T14:16:00.242Z,38.93
2018-06-20T14:17:04.834Z,38.76
2018-06-20T14:18:08.254Z,37.34
2018-06-20T14:19:13.656Z,38.95
2018-06-20T14:20:21.389Z,39.74
2018-06-20T14:21:29.112Z,39.86
2018-06-20T14:22:33.048Z,40.90
2018-06-20T14:23:35.928Z,41.21
2018-06-20T14:24:39.657Z,42.16
2018-06-20T14:25:42.510Z,40.12
2018-06-20T14:26:49.210Z,40.09